AirNav   Free Bose Alto or Rondo audio sunglasses
 
 1065 users online  

FD77 Wimauma Air Park
Wimauma, Florida, USA

GOING TO WIMAUMA?


FAA INFORMATION EFFECTIVE 05 NOVEMBER 2020

Location

FAA Identifier: FD77
Lat/Long: 27-42-43.1110N 082-16-58.3270W
27-42.718517N 082-16.972117W
27.7119753,-82.2828686
(estimated)
Elevation: 100 ft. / 30 m (estimated)
Variation: 02W (1985)
From city: 1 mile E of WIMAUMA, FL
Time zone: UTC -5 (UTC -4 during Daylight Saving Time)
Zip code: 33598

Airport Operations

Airport use: Private use. Permission required prior to landing
Activation date: 07/1986
Control tower: no
ARTCC: MIAMI CENTER
FSS: SAINT PETERSBURG FLIGHT SERVICE STATION
Attendance: DAYLIGHT HOURS
Wind indicator: yes
Segmented circle: yes
Lights: ACTVT LIRL RY 09/27 - CTAF.

Airport Communications

UNICOM: 122.7
WX AWOS-3 at TPF (15 nm NW): 118.925 (813-251-6824)
WX AWOS-3 at PCM (18 nm N): 120.025 (813-764-8259)
WX AWOS-3 at VDF (18 nm N): 121.125 (813-630-0924)
WX ASOS at SPG (19 nm W): 118.875 (727-821-4334)

Nearby radio navigation aids

VOR radial/distance  VOR name  Freq  Var
LALr220/21.8LAKELAND VORTAC116.0001E
SRQr044/23.6SARASOTA VOR/DME117.0005W
PIEr124/24.3ST PETERSBURG VORTAC116.4005W

Airport Services

Fuel available: 100LL

Runway Information

Runway 9/27

Dimensions: 2700 x 100 ft. / 823 x 30 m
Surface: turf, in good condition
Runway edge lights: low intensity
RUNWAY 9  RUNWAY 27
Traffic pattern: leftleft
Displaced threshold: 650 ft.350 ft.

Airport Ownership and Management from official FAA records

Ownership: Privately-owned
Owner: WIMAUMA PROPERTY INVESTMENT LLC
1806 N FRANKLIN ST
TAMPA, FL 33602
Phone 813-740-0422
Manager: BASEM ALI
1806 N FRANKLIN ST
TAMPA, FL 33602
Phone 813-740-0422

Airport Operational Statistics

Aircraft based on the field: 38
Single engine airplanes: 37
Multi engine airplanes: 1
    

Additional Remarks

FOR CD CTC TAMPA APCH AT 813-878-2528

Instrument Procedures

There are no published instrument procedures at FD77.

Some nearby airports with instrument procedures:

KTPF - Peter O Knight Airport (15 nm NW)
KMCF - MacDill Air Force Base (15 nm NW)
KPCM - Plant City Airport (18 nm N)
KVDF - Tampa Executive Airport (18 nm N)
KSPG - Albert Whitted Airport (19 nm W)
 
Loc | Ops | Rwys | IFR | FBO | Links
Com | Nav | Svcs | Stats | Notes


 
Area around FD77 (Wimauma Air Park)
 
Road maps at: MapQuest Bing Google
 
Aerial photo
WARNING: Photo may not be current or correct
Aerial photo of FD77 (Wimauma Air Park)
Do you have a better or more recent aerial photo of Wimauma Air Park that you would like to share? If so, please send us your photo.

 
Sectional chart

 
Airport distance calculator
Flying to Wimauma Air Park? Find the distance to fly.

From to FD77

Sunrise and sunset
Times for 29-Nov-2020
 Local
(UTC-5)
 Zulu
(UTC)
Morning civil twilight06:3811:38
Sunrise07:0312:03
Sunset17:3322:33
Evening civil twilight17:5822:58

Current date and time
Zulu (UTC)  29-Nov-2020 23:13:39
Local (UTC-5)  29-Nov-2020 18:13:39
 
METAR
KMCF 
15nm NW 
292156Z AUTO 21007KT 10SM CLR 25/19 A2995 RMK AO2 SLP145 T02480185 FZRANO $
KTPF 
15nm NW 
292255Z AUTO 23005KT 10SM OVC100 24/17 A2996 RMK AO2
KPCM 
18nm N 
292255Z AUTO 22003KT 10SM CLR 25/18 A2997 RMK AO2
KVDF 
19nm N 
292255Z AUTO 22004KT 10SM CLR 25/17 A2996 RMK AO2
KSPG 
19nm W 
292253Z 22005KT 10SM CLR 24/18 A2994 RMK AO2 SLP137 T02390183
KTPA 
20nm NW 
292253Z 20008KT 10SM BKN340 24/17 A2995 RMK AO2 SLP142 T02390167 $
KLAL 
21nm NE 
292245Z 19003KT 10SM SCT060 24/17 A2997
KSRQ 
24nm SW 
292253Z 19004KT 10SM CLR 24/18 A2994 RMK AO2 SLP138 T02390178 $
KPIE 
25nm NW 
292253Z 20006KT 10SM FEW002 23/17 A2995 RMK AO2 SLP142 T02280167
TAF
KMCF 
15nm NW 
291700Z 2917/3023 17009KT 9999 FEW150 SCT200 QNH3004INS BECMG 3008/3009 20012G18KT 9000 VCSH SCT010 BKN020 510033 QNH2985INS BECMG 3013/3014 20015G20KT 8000 -SHRA BKN020 OVC035 510033 QNH2992INS TEMPO 3013/3018 VRB18G28KT 4800 -TSRA OVC003CB BECMG 3021/3022 28012G18KT 9999 NSW SCT025 510033 QNH2987INS TX25/2918Z TN22/3003Z
NOTAMs
Click for the latest NOTAMs
NOTAMs are issued by the DoD/FAA and will open in a separate window not controlled by AirNav.

 

 
 

Would you like to see your business listed on this page?

 If your business provides an interesting product or service to pilots, flight crews, aircraft, or users of the Wimauma Air Park, you should consider listing it here.  To start the listing process, click on the button below
 
Add a business
 

Other Pages about Wimauma Air Park

Update a link
 
Copyright © AirNav, LLC. All rights reserved. Privacy Policy  Contact